Time;durP1;ratioP1;P1;durP2;ratioP2;P2;SDS_P1;SDS_P2;PMS_P1;PMS_P2;Temp;Humidity;BMP_temperature;BMP_pressure;BME280_temperature;BME280_humidity;BME280_pressure;Samples;Min_cycle;Max_cycle;Signal;HPM_P1;HPM_P2
2022/08/18 00:03:08;;;;;;;22.52;12.57;;;;;;;20.25;100.00;100942.03;20943047;28;20041;-63
2022/08/18 00:13:49;;;;;;;17.67;10.32;;;;;;;20.08;100.00;100933.19;20948560;28;20052;-63
2022/08/18 00:24:11;;;;;;;21.13;9.18;;;;;;;20.18;100.00;100933.06;20959431;28;20204;-63
2022/08/18 00:34:32;;;;;;;20.73;9.15;;;;;;;20.08;100.00;100937.66;20953313;28;20051;-61
2022/08/18 00:44:55;;;;;;;19.33;9.23;;;;;;;20.17;100.00;100953.41;20953602;28;20051;-61
2022/08/18 00:55:18;;;;;;;22.73;8.70;;;;;;;20.00;100.00;100958.78;20947590;28;20055;-61
2022/08/18 01:05:47;;;;;;;18.70;8.45;;;;;;;20.08;100.00;100957.00;20945954;28;20386;-61
2022/08/18 01:26:49;;;;;;;21.38;9.43;;;;;;;20.12;100.00;100949.56;20951901;28;20045;-61
2022/08/18 01:37:10;;;;;;;21.45;8.68;;;;;;;20.11;100.00;100955.84;20954629;28;20055;-61
2022/08/18 01:47:33;;;;;;;28.55;8.80;;;;;;;20.20;100.00;100953.09;20975148;28;20125;-61
2022/08/18 01:58:09;;;;;;;20.90;8.30;;;;;;;20.31;100.00;100936.94;20965521;28;20475;-61
2022/08/18 02:08:31;;;;;;;24.33;9.20;;;;;;;20.28;100.00;100923.19;20960259;28;20038;-61
2022/08/18 02:18:54;;;;;;;24.65;8.40;;;;;;;20.23;100.00;100914.91;20960564;28;20064;-61
2022/08/18 02:29:15;;;;;;;20.45;8.18;;;;;;;20.08;100.00;100905.91;20962021;28;20048;-61
2022/08/18 02:39:37;;;;;;;21.48;9.13;;;;;;;19.95;100.00;100905.44;20962309;28;20052;-61
2022/08/18 02:49:59;;;;;;;28.75;10.00;;;;;;;19.64;100.00;100904.25;20959373;28;20032;-61
2022/08/18 03:00:20;;;;;;;20.25;10.63;;;;;;;19.80;100.00;100907.84;20956848;28;20052;-62
2022/08/18 03:10:42;;;;;;;32.17;14.20;;;;;;;19.63;100.00;100921.09;20954598;28;20055;-63
2022/08/18 03:21:08;;;;;;;25.45;12.85;;;;;;;19.46;100.00;100935.19;20963648;28;20045;-63
2022/08/18 03:31:30;;;;;;;25.73;12.38;;;;;;;19.58;100.00;100942.72;20965572;28;20095;-64
2022/08/18 03:41:54;;;;;;;24.08;12.07;;;;;;;19.52;100.00;100950.41;20948628;28;20048;-64
2022/08/18 03:52:22;;;;;;;26.00;12.43;;;;;;;19.65;100.00;100957.00;20948628;28;20063;-63
2022/08/18 04:02:43;;;;;;;28.98;12.15;;;;;;;19.67;100.00;100967.41;20954068;28;20135;-62
2022/08/18 04:13:05;;;;;;;27.27;12.02;;;;;;;19.59;100.00;100977.94;20948155;28;20040;-62
2022/08/18 04:23:27;;;;;;;37.83;11.68;;;;;;;19.48;100.00;100975.53;20952479;28;20436;-61
2022/08/18 04:33:48;;;;;;;26.42;11.95;;;;;;;19.62;100.00;100969.72;20951366;28;20040;-62
2022/08/18 04:44:11;;;;;;;27.20;12.00;;;;;;;19.55;100.00;100981.88;20957666;28;20048;-62
2022/08/18 04:54:37;;;;;;;32.63;10.80;;;;;;;19.53;100.00;100983.81;20947970;28;20135;-62
2022/08/18 05:05:02;;;;;;;24.48;9.55;;;;;;;19.53;100.00;100986.47;20950122;28;20040;-62
2022/08/18 05:15:23;;;;;;;23.63;9.35;;;;;;;19.64;100.00;100991.56;20942006;28;20049;-62
2022/08/18 05:25:46;;;;;;;26.95;12.00;;;;;;;19.56;100.00;100997.59;20971432;28;20086;-62
2022/08/18 05:36:14;;;;;;;26.85;11.77;;;;;;;19.70;100.00;100985.63;20965434;28;20037;-62
2022/08/18 05:46:52;;;;;;;28.30;11.77;;;;;;;19.88;100.00;100989.09;20963864;28;20044;-62
2022/08/18 05:57:18;;;;;;;35.53;15.15;;;;;;;19.71;100.00;101000.53;20957154;28;20040;-63
2022/08/18 06:07:45;;;;;;;40.85;16.77;;;;;;;19.61;100.00;100997.13;20956460;28;20477;-63
2022/08/18 06:18:29;;;;;;;35.28;15.65;;;;;;;19.68;100.00;101003.47;20957926;28;20093;-62
2022/08/18 06:29:02;;;;;;;25.55;14.75;;;;;;;19.86;100.00;101015.72;20974685;28;20063;-63
2022/08/18 06:39:40;;;;;;;29.08;14.88;;;;;;;20.01;100.00;101016.00;20949402;28;20048;-63
2022/08/18 06:50:11;;;;;;;26.08;13.63;;;;;;;20.16;100.00;101025.88;20978620;28;20037;-63
2022/08/18 07:00:35;;;;;;;;;;;;;;;20.16;100.00;101028.53;20958321;28;20374;-64
2022/08/18 07:11:10;;;;;;;31.85;16.77;;;;;;;20.40;100.00;101024.22;20949983;28;19942;-63
2022/08/18 07:21:36;;;;;;;34.92;17.10;;;;;;;20.45;100.00;101047.59;20964504;28;20041;-62
2022/08/18 07:32:03;;;;;;;31.35;15.48;;;;;;;20.41;100.00;101062.97;20960309;28;20049;-63
2022/08/18 07:43:00;;;;;;;26.23;12.63;;;;;;;20.79;100.00;101062.59;20987100;28;20128;-64
2022/08/18 07:53:26;;;;;;;22.08;12.13;;;;;;;20.88;100.00;101066.91;20956256;28;20214;-64
2022/08/18 08:03:56;;;;;;;24.08;11.32;;;;;;;21.38;100.00;101091.66;20956522;28;20098;-64
2022/08/18 08:14:40;;;;;;;27.48;10.52;;;;;;;21.62;100.00;101081.13;20952325;28;20539;-64
2022/08/18 08:25:04;;;;;;;18.67;9.60;;;;;;;21.64;100.00;101081.78;20946886;28;20431;-61
2022/08/18 08:36:24;;;;;;;12.85;6.78;;;;;;;21.64;100.00;101084.44;20951923;28;20040;-62
2022/08/18 08:46:49;;;;;;;12.48;6.45;;;;;;;22.16;98.68;101088.47;20944402;28;20428;-62
2022/08/18 08:57:13;;;;;;;11.98;6.10;;;;;;;22.36;93.45;101084.50;20962936;28;20036;-63
2022/08/18 09:07:59;;;;;;;11.63;5.13;;;;;;;22.30;96.87;101096.63;20946090;28;20056;-63
2022/08/18 09:18:28;;;;;;;7.68;4.70;;;;;;;22.15;94.30;101108.91;20939605;28;20105;-63
2022/08/18 09:28:58;;;;;;;8.98;3.75;;;;;;;22.80;90.33;101094.53;20953562;28;20055;-62
2022/08/18 09:50:27;;;;;;;13.02;4.55;;;;;;;22.20;95.87;101100.44;20941409;28;20095;-63
2022/08/18 10:01:26;;;;;;;11.07;4.03;;;;;;;22.44;93.67;101110.06;20957336;28;20075;-62
2022/08/18 10:12:18;;;;;;;8.27;3.95;;;;;;;22.81;88.74;101096.22;20948713;28;20816;-62
2022/08/18 10:22:47;;;;;;;6.80;2.80;;;;;;;22.82;87.27;101114.66;20967124;28;20045;-62
2022/08/18 10:33:10;;;;;;;8.73;3.17;;;;;;;22.74;89.78;101127.97;20966559;28;20036;-63
2022/08/18 10:43:38;;;;;;;;;;;;;;;22.88;88.45;101119.28;20951326;28;20049;-62
2022/08/18 10:54:28;;;;;;;7.93;3.17;;;;;;;22.91;89.04;101126.94;20959647;28;20277;-62
2022/08/18 11:04:52;;;;;;;7.32;3.53;;;;;;;23.36;85.84;101129.81;20959437;28;20132;-62
2022/08/18 11:15:36;;;;;;;7.65;3.45;;;;;;;23.17;87.72;101140.84;20959501;28;20045;-63
2022/08/18 11:26:18;;;;;;;10.80;3.42;;;;;;;23.35;84.83;101157.41;20961934;28;20420;-63
2022/08/18 11:36:40;;;;;;;10.93;4.00;;;;;;;23.28;85.91;101148.47;20961725;28;20123;-63
2022/08/18 11:47:19;;;;;;;8.00;3.58;;;;;;;23.19;88.98;101146.81;20943844;28;20481;-63
2022/08/18 11:57:56;;;;;;;12.68;3.80;;;;;;;23.17;86.13;101146.16;20954562;28;20048;-62
2022/08/18 12:08:27;;;;;;;11.23;3.90;;;;;;;23.77;83.23;101144.59;20954419;28;20111;-61
2022/08/18 12:19:12;;;;;;;7.97;3.40;;;;;;;24.05;84.00;101148.41;20955275;28;20400;-62
2022/08/18 12:29:34;;;;;;;6.55;3.00;;;;;;;23.57;81.55;101138.03;20954728;28;20136;-62
2022/08/18 12:40:04;;;;;;;;;;;;;;;23.22;83.53;101117.22;20954596;28;20043;-61
2022/08/18 12:50:26;;;;;;;8.15;3.45;;;;;;;23.52;82.04;101121.75;20952468;28;19920;-61
2022/08/18 13:00:54;;;;;;;8.45;3.83;;;;;;;23.44;83.39;101137.72;20952084;28;20549;-61
2022/08/18 13:11:18;;;;;;;9.40;4.03;;;;;;;23.08;83.46;101141.88;20932952;28;20041;-62
2022/08/18 13:21:45;;;;;;;9.95;3.40;;;;;;;22.87;82.77;101133.59;20939088;28;20044;-62
2022/08/18 13:32:08;;;;;;;13.40;3.28;;;;;;;23.13;81.04;101112.94;20935400;28;20047;-61
2022/08/18 13:42:39;;;;;;;8.35;3.30;;;;;;;23.14;83.51;101124.41;20953305;28;20048;-61
2022/08/18 13:53:15;;;;;;;8.50;3.35;;;;;;;23.04;83.69;101140.53;20951712;28;20037;-62
2022/08/18 14:03:38;;;;;;;7.55;3.00;;;;;;;23.37;81.99;101142.09;20962125;28;20619;-62
2022/08/18 14:14:08;;;;;;;6.85;2.83;;;;;;;23.30;80.81;101151.78;20944392;28;20090;-61
2022/08/18 14:35:14;;;;;;;12.02;3.72;;;;;;;22.91;83.53;101166.81;20956109;28;20048;-62
2022/08/18 14:45:56;;;;;;;5.43;2.50;;;;;;;23.25;81.55;101148.81;20943588;28;20872;-63
2022/08/18 14:56:18;;;;;;;10.70;3.67;;;;;;;23.00;83.34;101164.97;20941515;28;20040;-63
2022/08/18 15:06:42;;;;;;;11.05;3.03;;;;;;;23.01;83.49;101162.13;20943652;28;20058;-63
2022/08/18 15:17:16;;;;;;;13.45;3.22;;;;;;;22.83;83.15;101160.69;20942020;28;20044;-63
2022/08/18 15:27:40;;;;;;;9.52;3.03;;;;;;;22.76;83.10;101157.06;20925045;28;20043;-63
2022/08/18 15:38:03;;;;;;;7.13;2.70;;;;;;;22.80;82.38;101159.22;20942661;28;20044;-63
2022/08/18 15:48:27;;;;;;;8.35;3.15;;;;;;;22.93;81.27;101150.69;20943508;28;20064;-63
2022/08/18 15:58:50;;;;;;;6.60;3.03;;;;;;;22.61;81.91;101153.44;20943240;28;20047;-63
2022/08/18 16:09:13;;;;;;;8.05;2.28;;;;;;;22.99;79.16;101142.88;20939244;28;20676;-62
2022/08/18 16:19:36;;;;;;;5.95;2.10;;;;;;;22.81;81.58;101144.06;20932982;28;20045;-64
2022/08/18 16:29:58;;;;;;;9.40;2.47;;;;;;;22.74;82.54;101133.28;20943015;28;20043;-63
2022/08/18 16:40:20;;;;;;;5.38;1.65;;;;;;;22.59;81.58;101144.78;20942248;28;20048;-63
2022/08/18 16:50:44;;;;;;;5.75;1.85;;;;;;;22.43;79.28;101129.66;20926964;28;20051;-63
2022/08/18 17:11:52;;;;;;;3.47;1.40;;;;;;;22.66;79.36;101161.72;20928206;28;20044;-63
2022/08/18 17:22:16;;;;;;;2.13;1.38;;;;;;;22.13;81.47;101160.50;20936264;28;20773;-63
2022/08/18 17:32:53;;;;;;;4.30;1.50;;;;;;;21.91;81.65;101163.81;20928567;28;21282;-63
2022/08/18 17:43:20;;;;;;;4.82;1.70;;;;;;;21.80;82.19;101172.09;20936574;28;20048;-63
2022/08/18 17:53:42;;;;;;;3.53;1.50;;;;;;;21.74;83.21;101162.94;20929689;28;20044;-63
2022/08/18 18:04:04;;;;;;;4.47;1.50;;;;;;;21.43;82.66;101158.31;20933062;28;20051;-62
2022/08/18 18:14:34;;;;;;;2.58;1.48;;;;;;;21.36;84.55;101167.91;20944040;28;20120;-60
2022/08/18 18:25:03;;;;;;;2.22;1.27;;;;;;;21.28;85.35;101159.09;20951429;28;20040;-60
2022/08/18 18:35:29;;;;;;;5.15;1.83;;;;;;;21.18;84.84;101164.50;20957909;28;20048;-60
2022/08/18 18:46:22;;;;;;;3.87;1.70;;;;;;;20.99;85.47;101143.50;20954984;28;20635;-59
2022/08/18 18:56:51;;;;;;;3.03;1.77;;;;;;;20.81;86.58;101144.56;20947084;28;20048;-60
2022/08/18 19:07:22;;;;;;;2.08;1.70;;;;;;;20.75;87.36;101153.09;20958356;28;20493;-60
2022/08/18 19:17:50;;;;;;;3.55;1.90;;;;;;;20.50;88.33;101151.28;20960968;28;20417;-59
2022/08/18 19:28:18;;;;;;;3.53;1.80;;;;;;;20.50;88.70;101161.88;20960833;28;20142;-60
2022/08/18 19:39:00;;;;;;;3.80;1.65;;;;;;;20.31;89.38;101162.03;20961735;28;20405;-60
2022/08/18 19:49:52;;;;;;;3.83;1.88;;;;;;;20.30;91.17;101154.25;20956861;28;20044;-62
2022/08/18 20:00:21;;;;;;;3.88;1.70;;;;;;;19.89;93.16;101160.13;20952535;28;20067;-60
2022/08/18 20:11:19;;;;;;;3.40;1.73;;;;;;;19.88;94.60;101172.50;20957942;28;20063;-60
2022/08/18 20:22:04;;;;;;;7.63;2.40;;;;;;;19.66;94.59;101167.66;20950260;28;20048;-61
2022/08/18 20:32:33;;;;;;;3.85;2.42;;;;;;;19.46;97.15;101163.44;20954709;28;20071;-61
2022/08/18 20:42:54;;;;;;;8.02;2.30;;;;;;;19.29;97.61;101170.47;20953665;28;20151;-60
2022/08/18 20:53:54;;;;;;;6.28;2.38;;;;;;;19.11;98.91;101167.75;20954084;28;20102;-61
2022/08/18 21:04:51;;;;;;;6.03;2.55;;;;;;;19.35;97.27;101168.13;20953778;28;20041;-59
2022/08/18 21:15:12;;;;;;;6.65;2.50;;;;;;;19.17;99.02;101172.50;20950920;28;20122;-60
2022/08/18 21:25:35;;;;;;;5.80;2.78;;;;;;;19.12;98.99;101180.03;20952180;28;20043;-59
2022/08/18 21:35:57;;;;;;;6.20;3.88;;;;;;;18.93;100.00;101173.94;20947302;28;20056;-60
2022/08/18 21:46:26;;;;;;;7.72;3.85;;;;;;;18.72;100.00;101168.00;20948434;28;20053;-59
2022/08/18 21:57:19;;;;;;;6.05;4.55;;;;;;;18.77;100.00;101173.69;20950283;28;20045;-61
2022/08/18 22:07:47;;;;;;;10.63;6.80;;;;;;;18.52;100.00;101169.84;20980888;28;20528;-59
2022/08/18 22:18:14;;;;;;;26.23;13.75;;;;;;;18.51;100.00;101189.28;20969215;28;20044;-60
2022/08/18 22:28:59;;;;;;;30.70;22.00;;;;;;;18.44;100.00;101190.84;20965179;28;20044;-60
2022/08/18 22:39:28;;;;;;;13.98;9.15;;;;;;;18.41;100.00;101193.75;20961506;28;20041;-60
2022/08/18 22:49:50;;;;;;;15.27;11.43;;;;;;;18.34;100.00;101202.38;20963924;28;20523;-60
2022/08/18 23:00:17;;;;;;;21.20;14.20;;;;;;;18.35;100.00;101203.19;20959883;28;20052;-59
2022/08/18 23:10:39;;;;;;;20.20;14.10;;;;;;;18.19;100.00;101182.63;20962014;28;20049;-61
2022/08/18 23:21:01;;;;;;;18.50;12.68;;;;;;;17.98;100.00;101195.06;20965122;28;20049;-60
2022/08/18 23:31:22;;;;;;;16.50;10.57;;;;;;;17.92;100.00;101184.25;20952914;28;20088;-60
2022/08/18 23:41:44;;;;;;;13.68;7.68;;;;;;;17.95;100.00;101194.53;20953533;28;20519;-61
2022/08/18 23:52:05;;;;;;;10.68;6.18;;;;;;;17.92;100.00;101195.66;20958962;28;20040;-60
